createdAt,value
2023-06-27T00:02:04.832Z,65.58
2023-06-27T00:04:37.807Z,65.94
2023-06-27T00:07:07.366Z,65.95
2023-06-27T00:09:34.508Z,65.35
2023-06-27T00:12:03.268Z,64.83
2023-06-27T00:14:38.103Z,64.38
2023-06-27T00:17:06.160Z,64.43
2023-06-27T00:19:32.851Z,64.28
2023-06-27T00:21:59.701Z,64.93
2023-06-27T00:24:26.890Z,64.33
2023-06-27T00:26:56.805Z,64.22
2023-06-27T00:29:24.049Z,64.50
2023-06-27T00:31:52.854Z,65.02
2023-06-27T00:34:19.860Z,65.26
2023-06-27T00:36:46.553Z,65.13
2023-06-27T00:39:13.380Z,65.07
2023-06-27T00:41:40.045Z,65.10
2023-06-27T00:44:07.767Z,65.45
2023-06-27T00:46:38.744Z,65.29
2023-06-27T00:49:09.892Z,65.93
2023-06-27T00:51:37.221Z,65.43
2023-06-27T00:54:04.082Z,66.11
2023-06-27T00:56:30.908Z,66.10
2023-06-27T00:59:00.314Z,66.22
2023-06-27T01:01:33.531Z,65.86
2023-06-27T01:04:00.495Z,66.27
2023-06-27T01:06:40.077Z,65.92
2023-06-27T01:09:09.721Z,66.85
2023-06-27T01:12:02.694Z,67.08
2023-06-27T01:14:30.903Z,67.44
2023-06-27T01:16:58.327Z,67.93
2023-06-27T01:19:27.090Z,68.08
2023-06-27T01:21:57.667Z,67.94
2023-06-27T01:24:28.871Z,68.50
2023-06-27T01:26:55.693Z,68.35
2023-06-27T01:29:22.429Z,68.52
2023-06-27T01:32:11.960Z,68.77
2023-06-27T01:34:45.035Z,68.94
2023-06-27T01:37:17.686Z,68.56
2023-06-27T01:39:54.643Z,69.01
2023-06-27T01:42:24.627Z,68.90
2023-06-27T01:44:52.110Z,69.00
2023-06-27T01:47:22.007Z,69.38
2023-06-27T01:49:49.038Z,69.87
2023-06-27T01:52:17.722Z,70.14
2023-06-27T01:54:49.823Z,69.90
2023-06-27T01:57:16.719Z,69.57
2023-06-27T01:59:45.531Z,69.27
2023-06-27T02:02:12.870Z,69.96
2023-06-27T02:04:40.351Z,70.07
2023-06-27T02:07:07.217Z,69.52
2023-06-27T02:09:36.996Z,69.05
2023-06-27T02:12:05.703Z,69.49
2023-06-27T02:14:32.712Z,69.65
2023-06-27T02:16:59.549Z,70.25
2023-06-27T02:19:26.274Z,69.76
2023-06-27T02:21:53.540Z,69.95
2023-06-27T02:24:20.469Z,70.22
2023-06-27T02:26:47.593Z,70.02
2023-06-27T02:29:14.370Z,69.97
2023-06-27T02:31:43.370Z,69.55
2023-06-27T02:34:12.339Z,70.00
2023-06-27T02:36:39.052Z,70.56
2023-06-27T02:39:05.808Z,71.22
2023-06-27T02:41:33.487Z,71.65
2023-06-27T02:44:03.066Z,72.33
2023-06-27T02:46:29.941Z,72.17
2023-06-27T02:48:56.715Z,72.11
2023-06-27T02:51:25.655Z,72.61
2023-06-27T02:53:52.322Z,73.16
2023-06-27T02:56:19.473Z,72.63
2023-06-27T02:58:47.626Z,72.92
2023-06-27T03:01:15.805Z,73.38
2023-06-27T03:03:47.012Z,73.07
2023-06-27T03:06:15.224Z,73.00
2023-06-27T03:08:42.213Z,74.02
2023-06-27T03:11:09.096Z,73.36
2023-06-27T03:13:36.279Z,73.72
2023-06-27T03:16:06.761Z,73.79
2023-06-27T03:18:34.336Z,73.08
2023-06-27T03:21:03.898Z,73.53
2023-06-27T03:23:31.895Z,73.64
2023-06-27T03:25:58.860Z,73.46
2023-06-27T03:28:25.550Z,73.43
2023-06-27T03:30:55.227Z,73.50
2023-06-27T03:33:22.387Z,73.50
2023-06-27T03:35:51.556Z,73.36
2023-06-27T03:38:18.363Z,73.57
2023-06-27T03:40:45.560Z,73.85
2023-06-27T03:43:15.257Z,73.81
2023-06-27T03:45:43.588Z,73.46
2023-06-27T03:48:10.633Z,73.56
2023-06-27T03:50:38.593Z,73.84
2023-06-27T03:53:09.360Z,73.80
2023-06-27T03:55:38.877Z,74.17
2023-06-27T03:58:06.055Z,73.71
2023-06-27T04:00:32.772Z,72.82
2023-06-27T04:02:59.954Z,73.01
2023-06-27T04:05:27.556Z,73.31
2023-06-27T04:07:54.380Z,73.45
2023-06-27T04:10:28.845Z,72.47
2023-06-27T04:12:55.737Z,73.03
2023-06-27T04:15:22.392Z,73.01
2023-06-27T04:17:49.221Z,72.35
2023-06-27T04:20:21.970Z,72.20
2023-06-27T04:22:48.654Z,72.19
2023-06-27T04:25:16.546Z,71.70
2023-06-27T04:27:46.859Z,71.82
2023-06-27T04:30:14.048Z,71.73
2023-06-27T04:32:42.547Z,72.64
2023-06-27T04:35:11.116Z,71.50
2023-06-27T04:37:41.068Z,71.79
2023-06-27T04:40:10.448Z,71.20
2023-06-27T04:42:37.200Z,70.75
2023-06-27T04:45:04.087Z,70.32
2023-06-27T04:47:30.876Z,71.02
2023-06-27T04:49:57.674Z,70.08
2023-06-27T04:52:24.250Z,69.63
2023-06-27T04:54:53.228Z,70.01
2023-06-27T04:57:20.708Z,69.62
2023-06-27T04:59:48.397Z,68.97
2023-06-27T05:02:15.029Z,68.76
2023-06-27T05:04:41.921Z,68.73
2023-06-27T05:07:08.613Z,68.83
2023-06-27T05:09:36.464Z,68.86
2023-06-27T05:12:03.236Z,68.42
2023-06-27T05:14:29.990Z,68.38
2023-06-27T05:16:56.859Z,68.04
2023-06-27T05:19:23.665Z,67.82
2023-06-27T05:21:50.408Z,68.10
2023-06-27T05:24:19.485Z,68.03
2023-06-27T05:26:46.204Z,67.87
2023-06-27T05:29:12.875Z,67.84
2023-06-27T05:31:46.268Z,67.58
2023-06-27T05:34:14.054Z,67.25
2023-06-27T05:36:40.808Z,67.78
2023-06-27T05:39:07.586Z,68.68
2023-06-27T05:41:34.335Z,67.39
2023-06-27T05:44:01.047Z,66.82
2023-06-27T05:46:27.749Z,67.17
2023-06-27T05:48:54.440Z,66.69
2023-06-27T05:51:23.302Z,67.05
2023-06-27T05:53:49.991Z,66.33
2023-06-27T05:56:16.667Z,66.52
2023-06-27T05:58:43.488Z,65.59
2023-06-27T06:01:10.554Z,65.57
2023-06-27T06:03:39.890Z,65.26
2023-06-27T06:06:06.749Z,65.38
2023-06-27T06:08:33.472Z,64.59
2023-06-27T06:11:00.277Z,64.53
2023-06-27T06:13:27.033Z,64.38
2023-06-27T06:15:53.817Z,64.75
2023-06-27T06:18:20.537Z,63.43
2023-06-27T06:20:47.236Z,63.22
2023-06-27T06:23:13.933Z,64.13
2023-06-27T06:25:40.894Z,63.58
2023-06-27T06:28:10.890Z,63.42
2023-06-27T06:30:37.708Z,63.92
2023-06-27T06:33:04.428Z,63.55
2023-06-27T06:35:31.134Z,63.08
2023-06-27T06:38:00.053Z,63.11
2023-06-27T06:40:33.024Z,63.50
2023-06-27T06:42:59.701Z,63.28
2023-06-27T06:45:26.410Z,61.46
2023-06-27T06:47:53.792Z,61.99
2023-06-27T06:50:20.596Z,63.03
2023-06-27T06:52:47.408Z,62.18
2023-06-27T06:55:14.128Z,61.50
2023-06-27T06:57:43.150Z,62.07
2023-06-27T07:00:10.069Z,61.34
2023-06-27T07:02:36.931Z,61.37
2023-06-27T07:05:03.712Z,60.07
2023-06-27T07:07:30.568Z,59.96
2023-06-27T07:09:57.334Z,60.13
2023-06-27T07:12:24.106Z,59.51
2023-06-27T07:14:52.814Z,58.52
2023-06-27T07:17:19.623Z,58.77
2023-06-27T07:19:46.346Z,57.96
2023-06-27T07:22:13.020Z,57.39
2023-06-27T07:24:39.671Z,57.73
2023-06-27T07:27:08.049Z,56.62
2023-06-27T07:29:34.654Z,57.60
2023-06-27T07:32:01.820Z,56.69
2023-06-27T07:34:28.620Z,56.23
2023-06-27T07:36:55.411Z,56.89
2023-06-27T07:41:48.856Z,56.73
2023-06-27T07:44:15.567Z,57.07
2023-06-27T07:46:45.435Z,57.33
2023-06-27T07:49:12.202Z,55.38
2023-06-27T07:51:38.864Z,53.71
2023-06-27T07:54:05.582Z,53.81
2023-06-27T07:56:32.231Z,54.03
2023-06-27T07:59:00.256Z,53.05
2023-06-27T08:01:29.302Z,53.66
2023-06-27T08:03:56.198Z,53.66
2023-06-27T08:06:23.147Z,54.51
2023-06-27T08:08:49.914Z,54.74
2023-06-27T08:11:16.629Z,51.95
2023-06-27T08:13:43.300Z,53.31
2023-06-27T08:16:10.655Z,53.18
2023-06-27T08:18:37.495Z,52.31
2023-06-27T08:21:05.569Z,51.34
2023-06-27T08:23:32.564Z,50.73
2023-06-27T08:25:59.434Z,50.56
2023-06-27T08:28:26.245Z,50.87
2023-06-27T08:30:52.993Z,50.08
2023-06-27T08:33:19.859Z,49.73
2023-06-27T08:35:46.632Z,49.87
2023-06-27T08:38:13.660Z,49.42
2023-06-27T08:40:42.281Z,49.71
2023-06-27T08:43:11.836Z,50.10
2023-06-27T08:45:39.188Z,48.87
2023-06-27T08:48:10.051Z,49.94
2023-06-27T08:50:39.723Z,49.24
2023-06-27T08:53:08.506Z,49.60
2023-06-27T08:55:50.560Z,49.07
2023-06-27T08:58:17.469Z,49.76
2023-06-27T09:00:47.680Z,50.13
2023-06-27T09:03:15.332Z,49.40
2023-06-27T09:05:45.685Z,49.23
2023-06-27T09:08:13.380Z,48.78
2023-06-27T09:10:41.096Z,49.56
2023-06-27T09:13:09.215Z,48.06
2023-06-27T09:15:35.936Z,50.03
2023-06-27T09:18:02.694Z,48.89
2023-06-27T09:20:29.474Z,47.79
2023-06-27T09:23:00.827Z,47.85
2023-06-27T09:25:32.154Z,46.10
2023-06-27T09:28:01.890Z,47.46
2023-06-27T09:30:31.649Z,48.07
2023-06-27T09:32:59.514Z,48.56
2023-06-27T09:35:51.847Z,48.80
2023-06-27T09:40:50.280Z,45.80
2023-06-27T09:43:21.006Z,47.59
2023-06-27T09:45:57.272Z,46.35
2023-06-27T09:48:24.016Z,47.15
2023-06-27T09:50:52.700Z,46.33
2023-06-27T09:53:19.412Z,44.10
2023-06-27T09:55:47.574Z,44.45
2023-06-27T09:58:18.966Z,46.13
2023-06-27T10:00:49.486Z,46.34
2023-06-27T10:03:20.873Z,46.92
2023-06-27T10:06:08.073Z,46.06
2023-06-27T10:08:38.626Z,44.43
2023-06-27T10:11:05.284Z,43.97
2023-06-27T10:13:32.016Z,44.44
2023-06-27T10:15:58.906Z,45.52
2023-06-27T10:18:26.339Z,45.08
2023-06-27T10:20:56.263Z,45.95
2023-06-27T10:23:23.344Z,44.97
2023-06-27T10:25:52.618Z,45.99
2023-06-27T10:28:20.838Z,44.23
2023-06-27T10:30:50.735Z,44.62
2023-06-27T10:33:33.087Z,44.65
2023-06-27T10:36:00.604Z,43.91
2023-06-27T10:38:37.729Z,42.30
2023-06-27T10:41:06.755Z,42.83
2023-06-27T10:43:39.388Z,40.96
2023-06-27T10:46:32.810Z,41.79
2023-06-27T10:49:06.218Z,42.74
2023-06-27T10:51:39.854Z,40.98
2023-06-27T10:54:09.957Z,37.27
2023-06-27T10:57:07.021Z,36.09
2023-06-27T10:59:35.291Z,34.96
2023-06-27T11:02:04.078Z,34.06
2023-06-27T11:04:44.525Z,37.16
2023-06-27T11:07:31.415Z,37.34
2023-06-27T11:09:58.242Z,36.99
2023-06-27T11:12:34.418Z,36.49
2023-06-27T11:15:02.430Z,36.05
2023-06-27T11:17:29.643Z,36.97
2023-06-27T11:20:05.533Z,38.42
2023-06-27T11:22:35.285Z,40.34
2023-06-27T11:25:14.300Z,41.31
2023-06-27T11:27:41.037Z,42.72
2023-06-27T11:30:07.934Z,42.42
2023-06-27T11:32:36.786Z,42.41
2023-06-27T11:35:09.143Z,41.36
2023-06-27T11:37:35.863Z,38.79
2023-06-27T11:40:08.143Z,34.58
2023-06-27T11:42:36.118Z,35.90
2023-06-27T11:45:03.812Z,33.44
2023-06-27T11:47:30.527Z,34.98
2023-06-27T11:50:17.458Z,36.58
2023-06-27T11:52:44.210Z,38.37
2023-06-27T11:55:10.912Z,39.46
2023-06-27T11:57:44.472Z,47.42
2023-06-27T12:00:31.210Z,54.63
2023-06-27T12:03:04.711Z,60.47
2023-06-27T12:05:34.842Z,65.01
2023-06-27T12:08:54.232Z,66.72
2023-06-27T12:11:40.743Z,68.12
2023-06-27T12:14:39.770Z,69.55
2023-06-27T12:20:09.699Z,71.02
2023-06-27T12:23:04.969Z,72.58
2023-06-27T12:26:33.334Z,72.10
2023-06-27T12:31:55.158Z,70.07
2023-06-27T12:38:45.725Z,70.84
2023-06-27T12:41:15.460Z,61.98
2023-06-27T12:50:44.476Z,46.03
2023-06-27T12:56:58.058Z,46.42
2023-06-27T12:59:31.341Z,45.62
2023-06-27T13:02:26.138Z,44.97
2023-06-27T13:04:52.978Z,48.78
2023-06-27T13:07:21.012Z,46.44
2023-06-27T13:10:03.449Z,46.15
2023-06-27T13:12:42.327Z,42.96
2023-06-27T13:15:10.451Z,42.73
2023-06-27T13:17:44.126Z,42.80
2023-06-27T13:20:14.375Z,43.40
2023-06-27T13:22:41.290Z,42.61
2023-06-27T13:25:11.253Z,41.21
2023-06-27T13:27:38.011Z,41.72
2023-06-27T13:30:06.334Z,42.75
2023-06-27T13:32:33.432Z,43.73
2023-06-27T13:35:04.445Z,42.21
2023-06-27T13:37:31.249Z,42.10
2023-06-27T13:40:00.135Z,42.89
2023-06-27T13:42:30.163Z,42.82
2023-06-27T13:45:03.979Z,41.26
2023-06-27T13:47:34.231Z,42.92
2023-06-27T13:50:00.986Z,43.22
2023-06-27T13:52:27.681Z,43.06
2023-06-27T13:54:55.598Z,42.51
2023-06-27T13:57:28.316Z,43.74
2023-06-27T13:59:55.128Z,46.30
2023-06-27T14:02:22.953Z,45.75
2023-06-27T14:05:08.625Z,45.76
2023-06-27T14:07:37.554Z,46.43
2023-06-27T14:10:04.527Z,46.75
2023-06-27T14:12:31.264Z,48.82
2023-06-27T14:14:58.873Z,48.37
2023-06-27T14:17:25.596Z,49.18
2023-06-27T14:19:52.242Z,50.57
2023-06-27T14:22:19.063Z,53.37
2023-06-27T14:24:48.442Z,57.19
2023-06-27T14:27:22.902Z,55.78
2023-06-27T14:29:49.579Z,56.05
2023-06-27T14:32:16.267Z,55.09
2023-06-27T14:34:42.912Z,56.57
2023-06-27T14:37:09.587Z,55.32
2023-06-27T14:39:36.368Z,53.32
2023-06-27T14:42:03.060Z,50.79
2023-06-27T14:44:31.414Z,49.07
2023-06-27T14:47:01.436Z,46.52
2023-06-27T14:49:28.259Z,42.70
2023-06-27T14:51:54.891Z,42.79
2023-06-27T14:54:21.945Z,44.01
2023-06-27T14:56:48.760Z,40.58
2023-06-27T14:59:31.116Z,41.07
2023-06-27T15:02:00.079Z,40.93
2023-06-27T15:04:26.943Z,40.90
2023-06-27T15:06:56.729Z,40.31
2023-06-27T15:09:23.700Z,41.21
2023-06-27T15:11:50.935Z,40.41
2023-06-27T15:14:20.074Z,41.30
2023-06-27T15:16:46.818Z,42.55
2023-06-27T15:19:13.576Z,43.01
2023-06-27T15:21:40.603Z,41.75
2023-06-27T15:24:07.941Z,43.19
2023-06-27T15:26:34.769Z,44.00
2023-06-27T15:29:01.818Z,44.37
2023-06-27T15:31:34.679Z,44.67
2023-06-27T15:34:02.477Z,45.86
2023-06-27T15:36:31.408Z,46.49
2023-06-27T15:39:09.679Z,47.29
2023-06-27T15:42:17.864Z,49.13
2023-06-27T15:45:19.745Z,50.85
2023-06-27T15:47:46.610Z,52.50
2023-06-27T15:53:38.156Z,55.44
2023-06-27T15:56:30.866Z,55.74
2023-06-27T15:58:58.508Z,54.02
2023-06-27T16:08:12.986Z,51.70
2023-06-27T16:10:58.313Z,52.39
2023-06-27T16:17:21.726Z,53.97
2023-06-27T16:27:20.908Z,53.23
2023-06-27T16:27:25.767Z,53.60
2023-06-27T16:30:21.061Z,54.03
2023-06-27T16:33:14.175Z,53.84
2023-06-27T16:35:40.934Z,55.50
2023-06-27T16:38:22.508Z,54.30
2023-06-27T16:41:20.837Z,54.88
2023-06-27T16:43:50.198Z,55.49
2023-06-27T16:46:31.044Z,57.29
2023-06-27T16:48:57.720Z,59.30
2023-06-27T16:51:24.422Z,59.44
2023-06-27T16:53:51.160Z,59.58
2023-06-27T16:56:17.862Z,59.91
2023-06-27T16:58:44.617Z,60.01
2023-06-27T17:01:11.415Z,62.03
2023-06-27T17:03:38.158Z,65.15
2023-06-27T17:06:04.849Z,62.91
2023-06-27T17:08:31.514Z,61.99
2023-06-27T17:11:00.394Z,62.83
2023-06-27T17:13:27.780Z,63.03
2023-06-27T17:15:54.854Z,63.58
2023-06-27T17:18:21.617Z,63.91
2023-06-27T17:20:48.283Z,64.26
2023-06-27T17:23:17.082Z,63.80
2023-06-27T17:25:44.000Z,63.60
2023-06-27T17:28:12.065Z,64.63
2023-06-27T17:30:38.920Z,63.79
2023-06-27T17:33:05.702Z,65.05
2023-06-27T17:35:33.417Z,69.25
2023-06-27T17:38:04.338Z,67.48
2023-06-27T17:40:31.168Z,67.17
2023-06-27T17:42:57.880Z,69.65
2023-06-27T17:45:24.622Z,67.38
2023-06-27T17:47:56.965Z,68.24
2023-06-27T17:50:24.472Z,71.76
2023-06-27T17:52:51.311Z,73.41
2023-06-27T17:55:18.579Z,74.11
2023-06-27T17:57:45.433Z,72.48
2023-06-27T18:00:12.567Z,73.63
2023-06-27T18:02:39.574Z,72.93
2023-06-27T18:05:06.787Z,74.39
2023-06-27T18:07:38.426Z,72.76
2023-06-27T18:10:07.029Z,74.22
2023-06-27T18:12:33.782Z,74.56
2023-06-27T18:15:01.151Z,73.54
2023-06-27T18:17:27.944Z,74.04
2023-06-27T18:19:59.512Z,72.69
2023-06-27T18:22:26.881Z,75.67
2023-06-27T18:24:53.995Z,75.80
2023-06-27T18:27:21.084Z,73.70
2023-06-27T18:29:49.412Z,73.73
2023-06-27T18:32:16.807Z,76.09
2023-06-27T18:34:43.482Z,74.50
2023-06-27T18:37:15.676Z,73.97
2023-06-27T18:39:42.424Z,74.76
2023-06-27T18:42:09.118Z,75.02
2023-06-27T18:44:35.963Z,74.65
2023-06-27T18:47:02.713Z,74.51
2023-06-27T18:49:32.887Z,74.94
2023-06-27T18:52:01.662Z,74.58
2023-06-27T18:54:30.295Z,74.64
2023-06-27T18:56:57.020Z,74.81
2023-06-27T18:59:23.845Z,75.21
2023-06-27T19:01:55.909Z,75.53
2023-06-27T19:04:22.866Z,76.01
2023-06-27T19:06:50.770Z,76.59
2023-06-27T19:09:20.338Z,76.63
2023-06-27T19:11:47.332Z,75.41
2023-06-27T19:14:14.146Z,75.77
2023-06-27T19:16:41.064Z,75.55
2023-06-27T19:19:10.776Z,76.62
2023-06-27T19:21:39.853Z,74.64
2023-06-27T19:24:08.956Z,74.94
2023-06-27T19:26:35.670Z,74.84
2023-06-27T19:29:03.209Z,74.79
2023-06-27T19:31:30.066Z,75.71
2023-06-27T19:33:56.859Z,76.76
2023-06-27T19:36:23.871Z,76.19
2023-06-27T19:38:50.505Z,75.30
2023-06-27T19:41:18.677Z,75.29
2023-06-27T19:46:25.930Z,76.49
2023-06-27T19:48:52.547Z,76.61
2023-06-27T19:51:19.308Z,76.70
2023-06-27T19:53:46.364Z,75.62
2023-06-27T19:56:13.863Z,76.56
2023-06-27T19:58:40.457Z,75.79
2023-06-27T20:01:07.249Z,76.19
2023-06-27T20:03:33.873Z,78.91
2023-06-27T20:06:00.621Z,78.58
2023-06-27T20:08:27.295Z,80.69
2023-06-27T20:10:53.955Z,78.70
2023-06-27T20:13:20.609Z,77.87
2023-06-27T20:15:47.422Z,76.18
2023-06-27T20:18:14.163Z,75.72
2023-06-27T20:20:41.253Z,77.11
2023-06-27T20:23:08.218Z,77.01
2023-06-27T20:25:34.933Z,78.63
2023-06-27T20:28:01.564Z,77.91
2023-06-27T20:30:29.836Z,77.97
2023-06-27T20:32:56.525Z,78.70
2023-06-27T20:35:23.320Z,79.34
2023-06-27T20:37:50.039Z,78.57
2023-06-27T20:40:16.821Z,79.29
2023-06-27T20:42:43.485Z,77.63
2023-06-27T20:45:10.552Z,78.40
2023-06-27T20:47:37.161Z,77.62
2023-06-27T20:50:06.690Z,78.27
2023-06-27T20:52:33.400Z,77.41
2023-06-27T20:55:00.135Z,79.38
2023-06-27T20:57:26.777Z,79.26
2023-06-27T20:59:54.864Z,78.54
2023-06-27T21:02:21.508Z,79.49
2023-06-27T21:04:48.138Z,80.07
2023-06-27T21:07:14.870Z,79.35
2023-06-27T21:09:41.595Z,79.92
2023-06-27T21:12:08.600Z,79.67
2023-06-27T21:14:35.238Z,80.39
2023-06-27T21:17:01.886Z,79.86
2023-06-27T21:19:28.591Z,79.58
2023-06-27T21:21:55.304Z,78.60
2023-06-27T21:24:21.995Z,78.40
2023-06-27T21:26:48.685Z,78.18
2023-06-27T21:29:15.556Z,80.05
2023-06-27T21:31:42.339Z,80.92
2023-06-27T21:34:09.194Z,80.75
2023-06-27T21:36:36.388Z,80.75
2023-06-27T21:39:03.479Z,79.61
2023-06-27T21:41:30.132Z,78.97
2023-06-27T21:43:56.796Z,81.22
2023-06-27T21:46:24.451Z,78.63
2023-06-27T21:48:56.578Z,77.56
2023-06-27T21:51:26.822Z,78.30
2023-06-27T21:53:54.003Z,77.34
2023-06-27T21:56:21.045Z,76.85
2023-06-27T21:58:47.855Z,78.43
2023-06-27T22:01:14.654Z,79.62
2023-06-27T22:03:41.477Z,78.68
2023-06-27T22:06:09.198Z,78.80
2023-06-27T22:08:35.948Z,79.56
2023-06-27T22:11:02.618Z,78.54
2023-06-27T22:13:29.416Z,79.79
2023-06-27T22:15:56.114Z,79.89
2023-06-27T22:18:22.772Z,80.09
2023-06-27T22:20:49.491Z,79.52
2023-06-27T22:23:16.511Z,78.32
2023-06-27T22:25:43.184Z,78.28
2023-06-27T22:28:10.002Z,78.34
2023-06-27T22:30:36.722Z,77.49
2023-06-27T22:33:03.494Z,78.41
2023-06-27T22:35:30.196Z,78.29
2023-06-27T22:37:56.992Z,78.30
2023-06-27T22:40:29.206Z,78.78
2023-06-27T22:42:56.018Z,77.78
2023-06-27T22:45:22.766Z,78.02
2023-06-27T22:47:49.489Z,77.56
2023-06-27T22:50:16.132Z,77.30
2023-06-27T22:52:42.768Z,76.74
2023-06-27T22:55:09.561Z,77.38
2023-06-27T22:57:36.955Z,76.83
2023-06-27T23:00:04.571Z,77.22
2023-06-27T23:02:31.352Z,76.82
2023-06-27T23:04:58.053Z,77.00
2023-06-27T23:07:24.815Z,77.59
2023-06-27T23:09:51.439Z,77.04
2023-06-27T23:12:18.349Z,76.55
2023-06-27T23:14:44.974Z,76.85
2023-06-27T23:17:12.643Z,76.41
2023-06-27T23:19:40.416Z,76.67
2023-06-27T23:22:13.384Z,76.73
2023-06-27T23:24:40.120Z,77.17
2023-06-27T23:27:06.948Z,77.34
2023-06-27T23:29:37.469Z,78.02
2023-06-27T23:32:06.502Z,78.83
2023-06-27T23:34:33.242Z,78.07
2023-06-27T23:37:00.245Z,78.03
2023-06-27T23:39:26.985Z,78.24
2023-06-27T23:41:53.782Z,79.07
2023-06-27T23:44:20.467Z,79.50
2023-06-27T23:46:47.228Z,80.02
2023-06-27T23:49:14.101Z,79.75
2023-06-27T23:51:40.765Z,79.37
2023-06-27T23:54:07.412Z,79.51
2023-06-27T23:56:34.183Z,78.95
2023-06-27T23:59:00.831Z,79.39
